sensor_id;sensor_type;location;lat;lon;timestamp;temperature;humidity
15713;DHT22;7957;51.608;6.916;2023-03-25T00:02:19;9.70;99.90
15713;DHT22;7957;51.608;6.916;2023-03-25T00:04:49;9.70;99.90
15713;DHT22;7957;51.608;6.916;2023-03-25T00:07:16;9.70;99.90
15713;DHT22;7957;51.608;6.916;2023-03-25T00:09:44;9.70;99.90
15713;DHT22;7957;51.608;6.916;2023-03-25T00:12:13;9.70;99.90
15713;DHT22;7957;51.608;6.916;2023-03-25T00:14:40;9.60;99.90
15713;DHT22;7957;51.608;6.916;2023-03-25T00:17:07;9.60;99.90
15713;DHT22;7957;51.608;6.916;2023-03-25T00:19:35;9.60;99.90
15713;DHT22;7957;51.608;6.916;2023-03-25T00:22:02;9.60;99.90
15713;DHT22;7957;51.608;6.916;2023-03-25T00:24:30;9.60;99.90
15713;DHT22;7957;51.608;6.916;2023-03-25T00:26:57;9.60;99.90
15713;DHT22;7957;51.608;6.916;2023-03-25T00:29:25;9.60;99.90
15713;DHT22;7957;51.608;6.916;2023-03-25T00:31:52;9.60;99.90
15713;DHT22;7957;51.608;6.916;2023-03-25T00:34:19;9.60;99.90
15713;DHT22;7957;51.608;6.916;2023-03-25T00:36:47;9.60;99.90
15713;DHT22;7957;51.608;6.916;2023-03-25T00:39:14;9.60;99.90
15713;DHT22;7957;51.608;6.916;2023-03-25T00:41:40;9.60;99.90
15713;DHT22;7957;51.608;6.916;2023-03-25T00:44:09;9.60;99.90
15713;DHT22;7957;51.608;6.916;2023-03-25T00:46:40;9.60;99.90
15713;DHT22;7957;51.608;6.916;2023-03-25T00:49:08;9.60;99.90
15713;DHT22;7957;51.608;6.916;2023-03-25T00:51:36;9.60;99.90
15713;DHT22;7957;51.608;6.916;2023-03-25T00:54:04;9.60;99.90
15713;DHT22;7957;51.608;6.916;2023-03-25T00:56:32;9.60;99.90
15713;DHT22;7957;51.608;6.916;2023-03-25T00:58:59;9.60;99.90
15713;DHT22;7957;51.608;6.916;2023-03-25T01:01:27;9.60;99.90
15713;DHT22;7957;51.608;6.916;2023-03-25T01:03:56;9.60;99.90
15713;DHT22;7957;51.608;6.916;2023-03-25T01:06:25;9.60;99.90
15713;DHT22;7957;51.608;6.916;2023-03-25T01:08:55;9.60;99.90
15713;DHT22;7957;51.608;6.916;2023-03-25T01:11:24;9.60;99.90
15713;DHT22;7957;51.608;6.916;2023-03-25T01:13:53;9.60;99.90
15713;DHT22;7957;51.608;6.916;2023-03-25T01:16:21;9.60;99.90
15713;DHT22;7957;51.608;6.916;2023-03-25T01:18:48;9.60;99.90
15713;DHT22;7957;51.608;6.916;2023-03-25T01:21:16;9.60;99.90
15713;DHT22;7957;51.608;6.916;2023-03-25T01:23:43;9.60;99.90
15713;DHT22;7957;51.608;6.916;2023-03-25T01:26:11;9.60;99.90
15713;DHT22;7957;51.608;6.916;2023-03-25T01:28:39;9.60;99.90
15713;DHT22;7957;51.608;6.916;2023-03-25T01:31:07;9.60;99.90
15713;DHT22;7957;51.608;6.916;2023-03-25T01:33:35;9.50;99.90
15713;DHT22;7957;51.608;6.916;2023-03-25T01:36:02;9.60;99.90
15713;DHT22;7957;51.608;6.916;2023-03-25T01:38:35;9.60;99.90
15713;DHT22;7957;51.608;6.916;2023-03-25T01:41:03;9.60;99.90
15713;DHT22;7957;51.608;6.916;2023-03-25T01:43:31;9.60;99.90
15713;DHT22;7957;51.608;6.916;2023-03-25T01:45:58;9.60;99.90
15713;DHT22;7957;51.608;6.916;2023-03-25T01:48:28;9.60;99.90
15713;DHT22;7957;51.608;6.916;2023-03-25T01:51:04;9.50;99.90
15713;DHT22;7957;51.608;6.916;2023-03-25T01:53:35;9.50;99.90
15713;DHT22;7957;51.608;6.916;2023-03-25T01:56:04;9.50;99.90
15713;DHT22;7957;51.608;6.916;2023-03-25T01:58:32;9.50;99.90
15713;DHT22;7957;51.608;6.916;2023-03-25T02:01:00;9.50;99.90
15713;DHT22;7957;51.608;6.916;2023-03-25T02:03:29;9.50;99.90
15713;DHT22;7957;51.608;6.916;2023-03-25T02:06:03;9.50;99.90
15713;DHT22;7957;51.608;6.916;2023-03-25T02:08:37;9.50;99.90
15713;DHT22;7957;51.608;6.916;2023-03-25T02:11:06;9.50;99.90
15713;DHT22;7957;51.608;6.916;2023-03-25T02:13:34;9.50;99.90
15713;DHT22;7957;51.608;6.916;2023-03-25T02:16:14;9.50;99.90
15713;DHT22;7957;51.608;6.916;2023-03-25T02:18:57;9.50;99.90
15713;DHT22;7957;51.608;6.916;2023-03-25T02:21:52;9.50;99.90
15713;DHT22;7957;51.608;6.916;2023-03-25T02:24:52;9.50;99.90
15713;DHT22;7957;51.608;6.916;2023-03-25T02:27:40;9.50;99.90
15713;DHT22;7957;51.608;6.916;2023-03-25T02:30:40;9.50;99.90
15713;DHT22;7957;51.608;6.916;2023-03-25T02:33:27;9.50;99.90
15713;DHT22;7957;51.608;6.916;2023-03-25T02:36:25;9.50;99.90
15713;DHT22;7957;51.608;6.916;2023-03-25T02:39:02;9.50;99.90
15713;DHT22;7957;51.608;6.916;2023-03-25T02:41:36;9.40;99.90
15713;DHT22;7957;51.608;6.916;2023-03-25T02:44:10;9.40;99.90
15713;DHT22;7957;51.608;6.916;2023-03-25T02:46:42;9.40;99.90
15713;DHT22;7957;51.608;6.916;2023-03-25T02:49:14;9.40;99.90
15713;DHT22;7957;51.608;6.916;2023-03-25T02:51:45;9.40;99.90
15713;DHT22;7957;51.608;6.916;2023-03-25T02:54:16;9.30;99.90
15713;DHT22;7957;51.608;6.916;2023-03-25T02:56:46;9.30;99.90
15713;DHT22;7957;51.608;6.916;2023-03-25T02:59:17;9.30;99.90
15713;DHT22;7957;51.608;6.916;2023-03-25T03:01:46;9.30;99.90
15713;DHT22;7957;51.608;6.916;2023-03-25T03:04:14;9.30;99.90
15713;DHT22;7957;51.608;6.916;2023-03-25T03:06:42;9.30;99.90
15713;DHT22;7957;51.608;6.916;2023-03-25T03:09:27;9.30;99.90
15713;DHT22;7957;51.608;6.916;2023-03-25T03:12:08;9.30;99.90
15713;DHT22;7957;51.608;6.916;2023-03-25T03:14:46;9.20;99.90
15713;DHT22;7957;51.608;6.916;2023-03-25T03:17:22;9.30;99.90
15713;DHT22;7957;51.608;6.916;2023-03-25T03:19:52;9.30;99.90
15713;DHT22;7957;51.608;6.916;2023-03-25T03:22:38;9.30;99.90
15713;DHT22;7957;51.608;6.916;2023-03-25T03:25:18;9.20;99.90
15713;DHT22;7957;51.608;6.916;2023-03-25T03:27:50;9.20;99.90
15713;DHT22;7957;51.608;6.916;2023-03-25T03:30:23;9.20;99.90
15713;DHT22;7957;51.608;6.916;2023-03-25T03:32:54;9.20;99.90
15713;DHT22;7957;51.608;6.916;2023-03-25T03:35:28;9.20;99.90
15713;DHT22;7957;51.608;6.916;2023-03-25T03:37:59;9.20;99.90
15713;DHT22;7957;51.608;6.916;2023-03-25T03:40:30;9.20;99.90
15713;DHT22;7957;51.608;6.916;2023-03-25T03:43:02;9.20;99.90
15713;DHT22;7957;51.608;6.916;2023-03-25T03:45:33;9.20;99.90
15713;DHT22;7957;51.608;6.916;2023-03-25T03:48:02;9.20;99.90
15713;DHT22;7957;51.608;6.916;2023-03-25T03:50:35;9.20;99.90
15713;DHT22;7957;51.608;6.916;2023-03-25T03:53:07;9.20;99.90
15713;DHT22;7957;51.608;6.916;2023-03-25T03:55:42;9.20;99.90
15713;DHT22;7957;51.608;6.916;2023-03-25T03:58:13;9.20;99.90
15713;DHT22;7957;51.608;6.916;2023-03-25T04:00:51;9.10;99.90
15713;DHT22;7957;51.608;6.916;2023-03-25T04:03:28;9.20;99.90
15713;DHT22;7957;51.608;6.916;2023-03-25T04:06:02;9.20;99.90
15713;DHT22;7957;51.608;6.916;2023-03-25T04:08:37;9.20;99.90
15713;DHT22;7957;51.608;6.916;2023-03-25T04:11:10;9.20;99.90
15713;DHT22;7957;51.608;6.916;2023-03-25T04:13:43;9.10;99.90
15713;DHT22;7957;51.608;6.916;2023-03-25T04:16:12;9.10;99.90
15713;DHT22;7957;51.608;6.916;2023-03-25T04:18:39;9.10;99.90
15713;DHT22;7957;51.608;6.916;2023-03-25T04:21:08;9.10;99.90
15713;DHT22;7957;51.608;6.916;2023-03-25T04:23:39;9.10;99.90
15713;DHT22;7957;51.608;6.916;2023-03-25T04:26:08;9.10;99.90
15713;DHT22;7957;51.608;6.916;2023-03-25T04:28:35;9.10;99.90
15713;DHT22;7957;51.608;6.916;2023-03-25T04:31:02;9.10;99.90
15713;DHT22;7957;51.608;6.916;2023-03-25T04:33:31;9.10;99.90
15713;DHT22;7957;51.608;6.916;2023-03-25T04:36:00;9.10;99.90
15713;DHT22;7957;51.608;6.916;2023-03-25T04:38:28;9.10;99.90
15713;DHT22;7957;51.608;6.916;2023-03-25T04:40:54;9.00;99.90
15713;DHT22;7957;51.608;6.916;2023-03-25T04:43:24;9.10;99.90
15713;DHT22;7957;51.608;6.916;2023-03-25T04:45:50;9.00;99.90
15713;DHT22;7957;51.608;6.916;2023-03-25T04:48:22;9.00;99.90
15713;DHT22;7957;51.608;6.916;2023-03-25T04:50:50;9.00;99.90
15713;DHT22;7957;51.608;6.916;2023-03-25T04:53:17;9.00;99.90
15713;DHT22;7957;51.608;6.916;2023-03-25T04:55:44;9.00;99.90
15713;DHT22;7957;51.608;6.916;2023-03-25T04:58:12;9.00;99.90
15713;DHT22;7957;51.608;6.916;2023-03-25T05:00:42;8.90;99.90
15713;DHT22;7957;51.608;6.916;2023-03-25T05:03:10;8.90;99.90
15713;DHT22;7957;51.608;6.916;2023-03-25T05:05:37;8.90;99.90
15713;DHT22;7957;51.608;6.916;2023-03-25T05:08:04;8.90;99.90
15713;DHT22;7957;51.608;6.916;2023-03-25T05:10:32;8.90;99.90
15713;DHT22;7957;51.608;6.916;2023-03-25T05:13:04;8.90;99.90
15713;DHT22;7957;51.608;6.916;2023-03-25T05:15:32;8.90;99.90
15713;DHT22;7957;51.608;6.916;2023-03-25T05:21:27;8.90;99.90
15713;DHT22;7957;51.608;6.916;2023-03-25T05:23:54;8.90;99.90
15713;DHT22;7957;51.608;6.916;2023-03-25T05:26:22;8.90;99.90
15713;DHT22;7957;51.608;6.916;2023-03-25T05:28:49;8.90;99.90
15713;DHT22;7957;51.608;6.916;2023-03-25T05:31:21;8.90;99.90
15713;DHT22;7957;51.608;6.916;2023-03-25T05:33:48;8.90;99.90
15713;DHT22;7957;51.608;6.916;2023-03-25T05:36:16;8.90;99.90
15713;DHT22;7957;51.608;6.916;2023-03-25T05:38:44;8.90;99.90
15713;DHT22;7957;51.608;6.916;2023-03-25T05:41:13;8.90;99.90
15713;DHT22;7957;51.608;6.916;2023-03-25T05:43:41;8.90;99.90
15713;DHT22;7957;51.608;6.916;2023-03-25T05:46:12;8.90;99.90
15713;DHT22;7957;51.608;6.916;2023-03-25T05:48:39;8.90;99.90
15713;DHT22;7957;51.608;6.916;2023-03-25T05:51:10;8.90;99.90
15713;DHT22;7957;51.608;6.916;2023-03-25T05:53:38;8.90;99.90
15713;DHT22;7957;51.608;6.916;2023-03-25T05:56:07;8.90;99.90
15713;DHT22;7957;51.608;6.916;2023-03-25T05:58:35;8.90;99.90
15713;DHT22;7957;51.608;6.916;2023-03-25T06:01:02;8.90;99.90
15713;DHT22;7957;51.608;6.916;2023-03-25T06:03:29;8.90;99.90
15713;DHT22;7957;51.608;6.916;2023-03-25T06:05:58;8.90;99.90
15713;DHT22;7957;51.608;6.916;2023-03-25T06:08:26;8.90;99.90
15713;DHT22;7957;51.608;6.916;2023-03-25T06:10:54;8.90;99.90
15713;DHT22;7957;51.608;6.916;2023-03-25T06:13:25;9.00;99.90
15713;DHT22;7957;51.608;6.916;2023-03-25T06:15:52;8.90;99.90
15713;DHT22;7957;51.608;6.916;2023-03-25T06:18:21;8.90;99.90
15713;DHT22;7957;51.608;6.916;2023-03-25T06:20:50;8.90;99.90
15713;DHT22;7957;51.608;6.916;2023-03-25T06:23:19;8.90;99.90
15713;DHT22;7957;51.608;6.916;2023-03-25T06:25:48;9.00;99.90
15713;DHT22;7957;51.608;6.916;2023-03-25T06:28:14;9.00;99.90
15713;DHT22;7957;51.608;6.916;2023-03-25T06:30:45;9.00;99.90
15713;DHT22;7957;51.608;6.916;2023-03-25T06:33:12;9.00;99.90
15713;DHT22;7957;51.608;6.916;2023-03-25T06:35:40;9.00;99.90
15713;DHT22;7957;51.608;6.916;2023-03-25T06:38:07;9.00;99.90
15713;DHT22;7957;51.608;6.916;2023-03-25T06:40:35;9.00;99.90
15713;DHT22;7957;51.608;6.916;2023-03-25T06:43:03;9.00;99.90
15713;DHT22;7957;51.608;6.916;2023-03-25T06:45:30;9.00;99.90
15713;DHT22;7957;51.608;6.916;2023-03-25T06:47:59;9.00;99.90
15713;DHT22;7957;51.608;6.916;2023-03-25T06:50:26;9.00;99.90
15713;DHT22;7957;51.608;6.916;2023-03-25T06:52:53;9.00;99.90
15713;DHT22;7957;51.608;6.916;2023-03-25T06:55:20;9.00;99.90
15713;DHT22;7957;51.608;6.916;2023-03-25T06:57:48;9.10;99.90
15713;DHT22;7957;51.608;6.916;2023-03-25T07:00:15;9.10;99.90
15713;DHT22;7957;51.608;6.916;2023-03-25T07:02:44;9.10;99.90
15713;DHT22;7957;51.608;6.916;2023-03-25T07:05:13;9.10;99.90
15713;DHT22;7957;51.608;6.916;2023-03-25T07:07:40;9.10;99.90
15713;DHT22;7957;51.608;6.916;2023-03-25T07:10:09;9.10;99.90
15713;DHT22;7957;51.608;6.916;2023-03-25T07:12:37;9.10;99.90
15713;DHT22;7957;51.608;6.916;2023-03-25T07:15:05;9.20;99.90
15713;DHT22;7957;51.608;6.916;2023-03-25T07:17:32;9.20;99.90
15713;DHT22;7957;51.608;6.916;2023-03-25T07:19:59;9.20;99.90
15713;DHT22;7957;51.608;6.916;2023-03-25T07:22:28;9.20;99.90
15713;DHT22;7957;51.608;6.916;2023-03-25T07:24:55;9.30;99.90
15713;DHT22;7957;51.608;6.916;2023-03-25T07:27:23;9.30;99.90
15713;DHT22;7957;51.608;6.916;2023-03-25T07:29:50;9.30;99.90
15713;DHT22;7957;51.608;6.916;2023-03-25T07:32:17;9.30;99.90
15713;DHT22;7957;51.608;6.916;2023-03-25T07:34:44;9.30;99.90
15713;DHT22;7957;51.608;6.916;2023-03-25T07:37:11;9.30;99.90
15713;DHT22;7957;51.608;6.916;2023-03-25T07:39:40;9.30;99.90
15713;DHT22;7957;51.608;6.916;2023-03-25T07:42:07;9.30;99.90
15713;DHT22;7957;51.608;6.916;2023-03-25T07:44:34;9.30;99.90
15713;DHT22;7957;51.608;6.916;2023-03-25T07:47:02;9.30;99.90
15713;DHT22;7957;51.608;6.916;2023-03-25T07:49:29;9.30;99.90
15713;DHT22;7957;51.608;6.916;2023-03-25T07:51:56;9.30;99.90
15713;DHT22;7957;51.608;6.916;2023-03-25T07:54:23;9.30;99.90
15713;DHT22;7957;51.608;6.916;2023-03-25T07:56:52;9.30;99.90
15713;DHT22;7957;51.608;6.916;2023-03-25T07:59:19;9.30;99.90
15713;DHT22;7957;51.608;6.916;2023-03-25T08:01:46;9.30;99.90
15713;DHT22;7957;51.608;6.916;2023-03-25T08:04:13;9.40;99.90
15713;DHT22;7957;51.608;6.916;2023-03-25T08:06:40;9.40;99.90
15713;DHT22;7957;51.608;6.916;2023-03-25T08:09:08;9.40;99.90
15713;DHT22;7957;51.608;6.916;2023-03-25T08:11:35;9.50;99.90
15713;DHT22;7957;51.608;6.916;2023-03-25T08:14:03;9.50;99.90
15713;DHT22;7957;51.608;6.916;2023-03-25T08:16:30;9.50;99.90
15713;DHT22;7957;51.608;6.916;2023-03-25T08:18:57;9.60;99.90
15713;DHT22;7957;51.608;6.916;2023-03-25T08:21:24;9.60;99.90
15713;DHT22;7957;51.608;6.916;2023-03-25T08:23:52;9.60;99.90
15713;DHT22;7957;51.608;6.916;2023-03-25T08:26:22;9.60;99.90
15713;DHT22;7957;51.608;6.916;2023-03-25T08:28:49;9.60;99.90
15713;DHT22;7957;51.608;6.916;2023-03-25T08:31:18;9.60;99.90
15713;DHT22;7957;51.608;6.916;2023-03-25T08:33:50;9.60;99.90
15713;DHT22;7957;51.608;6.916;2023-03-25T08:36:17;9.60;99.90
15713;DHT22;7957;51.608;6.916;2023-03-25T08:38:47;9.70;99.90
15713;DHT22;7957;51.608;6.916;2023-03-25T08:41:19;9.70;99.90
15713;DHT22;7957;51.608;6.916;2023-03-25T08:43:48;9.70;99.90
15713;DHT22;7957;51.608;6.916;2023-03-25T08:46:15;9.80;99.90
15713;DHT22;7957;51.608;6.916;2023-03-25T08:48:44;9.80;99.90
15713;DHT22;7957;51.608;6.916;2023-03-25T08:51:12;9.80;99.90
15713;DHT22;7957;51.608;6.916;2023-03-25T08:53:39;9.90;99.90
15713;DHT22;7957;51.608;6.916;2023-03-25T08:56:06;9.90;99.90
15713;DHT22;7957;51.608;6.916;2023-03-25T08:58:33;9.90;99.90
15713;DHT22;7957;51.608;6.916;2023-03-25T09:01:01;9.90;99.90
15713;DHT22;7957;51.608;6.916;2023-03-25T09:03:30;9.90;99.90
15713;DHT22;7957;51.608;6.916;2023-03-25T09:06:02;9.90;99.90
15713;DHT22;7957;51.608;6.916;2023-03-25T09:08:30;9.90;99.90
15713;DHT22;7957;51.608;6.916;2023-03-25T09:10:57;9.90;99.90
15713;DHT22;7957;51.608;6.916;2023-03-25T09:13:25;9.90;99.90
15713;DHT22;7957;51.608;6.916;2023-03-25T09:15:52;9.90;99.90
15713;DHT22;7957;51.608;6.916;2023-03-25T09:18:19;10.00;99.90
15713;DHT22;7957;51.608;6.916;2023-03-25T09:20:46;10.00;99.90
15713;DHT22;7957;51.608;6.916;2023-03-25T09:23:15;10.10;99.90
15713;DHT22;7957;51.608;6.916;2023-03-25T09:25:42;10.00;99.90
15713;DHT22;7957;51.608;6.916;2023-03-25T09:28:10;10.10;99.90
15713;DHT22;7957;51.608;6.916;2023-03-25T09:30:37;10.10;99.90
15713;DHT22;7957;51.608;6.916;2023-03-25T09:33:04;10.10;99.90
15713;DHT22;7957;51.608;6.916;2023-03-25T09:35:32;10.10;99.90
15713;DHT22;7957;51.608;6.916;2023-03-25T09:38:00;10.10;99.90
15713;DHT22;7957;51.608;6.916;2023-03-25T09:40:29;10.10;99.90
15713;DHT22;7957;51.608;6.916;2023-03-25T09:43:06;10.10;99.90
15713;DHT22;7957;51.608;6.916;2023-03-25T09:45:40;10.10;99.90
15713;DHT22;7957;51.608;6.916;2023-03-25T09:48:19;10.10;99.90
15713;DHT22;7957;51.608;6.916;2023-03-25T09:50:48;10.10;99.90
15713;DHT22;7957;51.608;6.916;2023-03-25T09:53:24;10.10;99.90
15713;DHT22;7957;51.608;6.916;2023-03-25T09:55:54;10.10;99.90
15713;DHT22;7957;51.608;6.916;2023-03-25T09:58:33;10.10;99.90
15713;DHT22;7957;51.608;6.916;2023-03-25T10:01:17;10.10;99.90
15713;DHT22;7957;51.608;6.916;2023-03-25T10:03:57;10.10;99.90
15713;DHT22;7957;51.608;6.916;2023-03-25T10:06:26;10.10;99.90
15713;DHT22;7957;51.608;6.916;2023-03-25T10:09:02;10.10;99.90
15713;DHT22;7957;51.608;6.916;2023-03-25T10:11:38;10.10;99.90
15713;DHT22;7957;51.608;6.916;2023-03-25T10:14:09;10.10;99.90
15713;DHT22;7957;51.608;6.916;2023-03-25T10:16:45;10.20;99.90
15713;DHT22;7957;51.608;6.916;2023-03-25T10:19:23;10.20;99.90
15713;DHT22;7957;51.608;6.916;2023-03-25T10:21:58;10.30;99.90
15713;DHT22;7957;51.608;6.916;2023-03-25T10:24:31;10.40;99.90
15713;DHT22;7957;51.608;6.916;2023-03-25T10:27:04;10.50;99.90
15713;DHT22;7957;51.608;6.916;2023-03-25T10:29:35;10.60;99.90
15713;DHT22;7957;51.608;6.916;2023-03-25T10:32:06;10.70;99.90
15713;DHT22;7957;51.608;6.916;2023-03-25T10:34:39;10.70;99.90
15713;DHT22;7957;51.608;6.916;2023-03-25T10:37:12;10.80;99.90
15713;DHT22;7957;51.608;6.916;2023-03-25T10:39:42;10.80;99.90
15713;DHT22;7957;51.608;6.916;2023-03-25T10:42:19;11.00;99.90
15713;DHT22;7957;51.608;6.916;2023-03-25T10:44:49;11.10;99.90
15713;DHT22;7957;51.608;6.916;2023-03-25T10:47:18;11.20;99.90
15713;DHT22;7957;51.608;6.916;2023-03-25T10:49:48;11.30;99.90
15713;DHT22;7957;51.608;6.916;2023-03-25T10:52:16;11.40;99.90
15713;DHT22;7957;51.608;6.916;2023-03-25T10:54:47;11.50;99.90
15713;DHT22;7957;51.608;6.916;2023-03-25T10:57:19;11.50;99.90
15713;DHT22;7957;51.608;6.916;2023-03-25T10:59:56;11.40;99.90
15713;DHT22;7957;51.608;6.916;2023-03-25T11:02:26;11.30;99.90
15713;DHT22;7957;51.608;6.916;2023-03-25T11:04:56;11.30;99.90
15713;DHT22;7957;51.608;6.916;2023-03-25T11:07:27;11.40;99.90
15713;DHT22;7957;51.608;6.916;2023-03-25T11:10:08;11.50;99.90
15713;DHT22;7957;51.608;6.916;2023-03-25T11:12:38;11.50;99.90
15713;DHT22;7957;51.608;6.916;2023-03-25T11:15:14;11.50;99.90
15713;DHT22;7957;51.608;6.916;2023-03-25T11:17:42;11.40;99.90
15713;DHT22;7957;51.608;6.916;2023-03-25T11:20:18;11.40;99.90
15713;DHT22;7957;51.608;6.916;2023-03-25T11:22:47;11.40;99.90
15713;DHT22;7957;51.608;6.916;2023-03-25T11:25:18;11.40;99.90
15713;DHT22;7957;51.608;6.916;2023-03-25T11:27:52;11.30;99.90
15713;DHT22;7957;51.608;6.916;2023-03-25T11:30:22;11.30;99.90
15713;DHT22;7957;51.608;6.916;2023-03-25T11:32:56;11.40;99.90
15713;DHT22;7957;51.608;6.916;2023-03-25T11:35:26;11.50;99.90
15713;DHT22;7957;51.608;6.916;2023-03-25T11:37:55;11.70;99.90
15713;DHT22;7957;51.608;6.916;2023-03-25T11:40:23;12.10;99.90
15713;DHT22;7957;51.608;6.916;2023-03-25T11:42:53;12.50;99.90
15713;DHT22;7957;51.608;6.916;2023-03-25T11:45:23;12.80;99.90
15713;DHT22;7957;51.608;6.916;2023-03-25T11:47:51;13.10;99.90
15713;DHT22;7957;51.608;6.916;2023-03-25T11:50:21;13.20;99.90
15713;DHT22;7957;51.608;6.916;2023-03-25T11:52:52;13.20;99.90
15713;DHT22;7957;51.608;6.916;2023-03-25T11:55:23;13.30;99.90
15713;DHT22;7957;51.608;6.916;2023-03-25T11:58:01;13.30;99.90
15713;DHT22;7957;51.608;6.916;2023-03-25T12:00:36;13.30;99.90
15713;DHT22;7957;51.608;6.916;2023-03-25T12:03:05;13.20;99.90
15713;DHT22;7957;51.608;6.916;2023-03-25T12:05:33;13.10;99.90
15713;DHT22;7957;51.608;6.916;2023-03-25T12:08:04;13.00;99.90
15713;DHT22;7957;51.608;6.916;2023-03-25T12:10:44;12.80;99.90
15713;DHT22;7957;51.608;6.916;2023-03-25T12:13:22;12.70;99.90
15713;DHT22;7957;51.608;6.916;2023-03-25T12:15:56;12.60;99.90
15713;DHT22;7957;51.608;6.916;2023-03-25T12:18:41;12.50;99.90
15713;DHT22;7957;51.608;6.916;2023-03-25T12:21:19;12.40;99.90
15713;DHT22;7957;51.608;6.916;2023-03-25T12:23:53;12.30;99.90
15713;DHT22;7957;51.608;6.916;2023-03-25T12:26:30;12.30;99.90
15713;DHT22;7957;51.608;6.916;2023-03-25T12:29:18;12.30;99.90
15713;DHT22;7957;51.608;6.916;2023-03-25T12:31:56;12.20;99.90
15713;DHT22;7957;51.608;6.916;2023-03-25T12:34:35;12.20;99.90
15713;DHT22;7957;51.608;6.916;2023-03-25T12:37:15;12.20;99.90
15713;DHT22;7957;51.608;6.916;2023-03-25T12:39:55;12.20;99.90
15713;DHT22;7957;51.608;6.916;2023-03-25T12:42:33;12.20;99.90
15713;DHT22;7957;51.608;6.916;2023-03-25T12:45:20;12.40;99.90
15713;DHT22;7957;51.608;6.916;2023-03-25T12:47:54;12.60;99.90
15713;DHT22;7957;51.608;6.916;2023-03-25T12:50:37;12.80;99.90
15713;DHT22;7957;51.608;6.916;2023-03-25T12:53:19;12.90;99.90
15713;DHT22;7957;51.608;6.916;2023-03-25T12:55:55;13.10;99.90
15713;DHT22;7957;51.608;6.916;2023-03-25T12:58:45;13.30;99.90
15713;DHT22;7957;51.608;6.916;2023-03-25T13:01:24;13.50;99.90
15713;DHT22;7957;51.608;6.916;2023-03-25T13:04:18;13.50;99.90
15713;DHT22;7957;51.608;6.916;2023-03-25T13:06:57;13.60;99.90
15713;DHT22;7957;51.608;6.916;2023-03-25T13:09:28;13.60;99.90
15713;DHT22;7957;51.608;6.916;2023-03-25T13:11:59;13.50;99.90
15713;DHT22;7957;51.608;6.916;2023-03-25T13:14:34;13.40;99.90
15713;DHT22;7957;51.608;6.916;2023-03-25T13:17:09;13.30;99.90
15713;DHT22;7957;51.608;6.916;2023-03-25T13:19:37;13.20;99.90
15713;DHT22;7957;51.608;6.916;2023-03-25T13:22:16;13.10;99.90
15713;DHT22;7957;51.608;6.916;2023-03-25T13:24:47;12.90;99.90
15713;DHT22;7957;51.608;6.916;2023-03-25T13:27:17;12.90;99.90
15713;DHT22;7957;51.608;6.916;2023-03-25T13:29:47;12.80;27.30
15713;DHT22;7957;51.608;6.916;2023-03-25T13:32:21;12.80;1.00
15713;DHT22;7957;51.608;6.916;2023-03-25T13:34:51;12.70;1.00
15713;DHT22;7957;51.608;6.916;2023-03-25T13:37:22;12.60;1.00
15713;DHT22;7957;51.608;6.916;2023-03-25T13:39:56;12.50;99.90
15713;DHT22;7957;51.608;6.916;2023-03-25T13:42:36;12.50;99.90
15713;DHT22;7957;51.608;6.916;2023-03-25T13:45:18;12.40;99.90
15713;DHT22;7957;51.608;6.916;2023-03-25T13:47:52;12.50;99.90
15713;DHT22;7957;51.608;6.916;2023-03-25T13:50:24;12.50;99.90
15713;DHT22;7957;51.608;6.916;2023-03-25T13:52:57;12.50;58.20
15713;DHT22;7957;51.608;6.916;2023-03-25T13:55:31;12.40;30.60
15713;DHT22;7957;51.608;6.916;2023-03-25T13:58:24;12.40;1.00
15713;DHT22;7957;51.608;6.916;2023-03-25T14:01:27;12.40;1.00
15713;DHT22;7957;51.608;6.916;2023-03-25T14:10:22;12.20;99.90
15713;DHT22;7957;51.608;6.916;2023-03-25T14:12:51;12.20;99.90
15713;DHT22;7957;51.608;6.916;2023-03-25T14:15:22;12.20;99.90
15713;DHT22;7957;51.608;6.916;2023-03-25T14:17:52;12.30;99.90
15713;DHT22;7957;51.608;6.916;2023-03-25T14:20:23;12.40;99.90
15713;DHT22;7957;51.608;6.916;2023-03-25T14:22:55;12.50;99.90
15713;DHT22;7957;51.608;6.916;2023-03-25T14:25:28;12.50;99.90
15713;DHT22;7957;51.608;6.916;2023-03-25T14:27:59;12.50;99.90
15713;DHT22;7957;51.608;6.916;2023-03-25T14:30:27;12.50;99.90
15713;DHT22;7957;51.608;6.916;2023-03-25T14:32:55;12.50;99.90
15713;DHT22;7957;51.608;6.916;2023-03-25T14:35:49;12.50;99.90
15713;DHT22;7957;51.608;6.916;2023-03-25T14:38:20;12.50;99.90
15713;DHT22;7957;51.608;6.916;2023-03-25T14:41:08;12.50;99.90
15713;DHT22;7957;51.608;6.916;2023-03-25T14:43:37;12.40;99.90
15713;DHT22;7957;51.608;6.916;2023-03-25T14:46:14;12.40;99.90
15713;DHT22;7957;51.608;6.916;2023-03-25T14:48:46;12.40;99.90
15713;DHT22;7957;51.608;6.916;2023-03-25T14:51:19;12.30;61.20
15713;DHT22;7957;51.608;6.916;2023-03-25T14:53:52;12.30;5.80
15713;DHT22;7957;51.608;6.916;2023-03-25T14:56:23;12.20;1.00
15713;DHT22;7957;51.608;6.916;2023-03-25T14:58:53;12.20;1.00
15713;DHT22;7957;51.608;6.916;2023-03-25T15:01:28;12.10;1.00
15713;DHT22;7957;51.608;6.916;2023-03-25T15:04:08;12.00;1.00
15713;DHT22;7957;51.608;6.916;2023-03-25T15:06:38;11.90;1.00
15713;DHT22;7957;51.608;6.916;2023-03-25T15:09:07;11.90;1.00
15713;DHT22;7957;51.608;6.916;2023-03-25T15:11:39;11.80;1.00
15713;DHT22;7957;51.608;6.916;2023-03-25T15:14:09;11.70;36.00
15713;DHT22;7957;51.608;6.916;2023-03-25T15:16:54;11.70;99.90
15713;DHT22;7957;51.608;6.916;2023-03-25T15:19:22;11.70;99.90
15713;DHT22;7957;51.608;6.916;2023-03-25T15:22:18;11.80;99.90
15713;DHT22;7957;51.608;6.916;2023-03-25T15:24:55;11.90;99.90
15713;DHT22;7957;51.608;6.916;2023-03-25T15:27:35;11.90;99.90
15713;DHT22;7957;51.608;6.916;2023-03-25T15:30:16;11.90;99.90
15713;DHT22;7957;51.608;6.916;2023-03-25T15:32:56;11.90;99.90
15713;DHT22;7957;51.608;6.916;2023-03-25T15:35:35;11.90;99.90
15713;DHT22;7957;51.608;6.916;2023-03-25T15:38:18;11.80;99.90
15713;DHT22;7957;51.608;6.916;2023-03-25T15:41:00;11.80;99.90
15713;DHT22;7957;51.608;6.916;2023-03-25T15:44:06;11.80;99.90
15713;DHT22;7957;51.608;6.916;2023-03-25T15:47:05;11.70;99.90
15713;DHT22;7957;51.608;6.916;2023-03-25T15:56:28;11.60;99.90
15713;DHT22;7957;51.608;6.916;2023-03-25T16:02:37;11.60;99.90
15713;DHT22;7957;51.608;6.916;2023-03-25T16:05:06;11.60;99.90
15713;DHT22;7957;51.608;6.916;2023-03-25T16:07:34;11.50;99.90
15713;DHT22;7957;51.608;6.916;2023-03-25T16:10:12;11.50;99.90
15713;DHT22;7957;51.608;6.916;2023-03-25T16:12:42;11.50;99.90
15713;DHT22;7957;51.608;6.916;2023-03-25T16:15:13;11.50;99.90
15713;DHT22;7957;51.608;6.916;2023-03-25T16:17:42;11.40;99.90
15713;DHT22;7957;51.608;6.916;2023-03-25T16:20:13;11.40;99.90
15713;DHT22;7957;51.608;6.916;2023-03-25T16:22:45;11.40;99.90
15713;DHT22;7957;51.608;6.916;2023-03-25T16:25:17;11.30;99.90
15713;DHT22;7957;51.608;6.916;2023-03-25T16:27:49;11.30;99.90
15713;DHT22;7957;51.608;6.916;2023-03-25T16:30:19;11.30;99.90
15713;DHT22;7957;51.608;6.916;2023-03-25T16:32:49;11.30;99.90
15713;DHT22;7957;51.608;6.916;2023-03-25T16:35:19;11.30;99.90
15713;DHT22;7957;51.608;6.916;2023-03-25T16:37:47;11.30;99.90
15713;DHT22;7957;51.608;6.916;2023-03-25T16:40:26;11.30;99.90
15713;DHT22;7957;51.608;6.916;2023-03-25T16:42:54;11.30;99.90
15713;DHT22;7957;51.608;6.916;2023-03-25T16:45:22;11.30;99.90